Deus Nao Falta — CUET3 — position and weather

sailwx.info

Track history (hours):
 
Tides and Currents Weather Stations Pressure Air Temp Water Temp Dewpoint Dewpoint Depression Visibility Wind Speed Wind Dir Waves Ship Positions

Deus Nao Falta

Last reported at 2018-Jul-13 17:39 UTC. Time now 2018-Jul-16 06:33 UTC.
Position N 39°11' W 009°24'.

Length 22 m.

Type: Fishing. MMSI: 263422970.

Date/timePositionNaut miles runAvg speedWind from/ knotsBaromVisibWave heightAir tempDewpointWater temp
2018-Jul-13 17:39N 39°11' W 009°24'1 2.3
2018-Jul-13 17:14N 39°10' W 009°24'0 0.2
2018-Jul-13 17:00N 39°10' W 009°24'0 0.3
2018-Jul-13 16:29N 39°09' W 009°24'2 0.1
2018-Jul-12 22:43N 39°11' W 009°24'210.2
2018-Jul-12 22:30N 39°09' W 009°25'3 5.4
2018-Jul-12 22:00N 39°07' W 009°26'0 0.1
2018-Jul-12 21:30N 39°07' W 009°26'0 0.4
2018-Jul-12 21:01N 39°07' W 009°26'0 0.2
2018-Jul-12 20:29N 39°07' W 009°26'1 1.7
2018-Jul-12 20:00N 39°08' W 009°26'4 2.8
2018-Jul-12 18:36N 39°11' W 009°24'0 0.0
2018-Jul-12 18:24N 39°11' W 009°24'1 1.5
2018-Jul-12 17:52N 39°12' W 009°24'2 0.8
2018-Jul-12 15:43N 39°14' W 009°24'210.0
2018-Jul-12 15:31N 39°12' W 009°25'2 3.1
2018-Jul-12 15:00N 39°10' W 009°26'0 0.3
2018-Jul-12 14:30N 39°10' W 009°26'2 3.4
2018-Jul-12 13:59N 39°10' W 009°24'3 0.5
2018-Jul-12 06:55N 39°13' W 009°24'4 9.7
2018-Jul-12 06:30N 39°09' W 009°26'0 0.3
2018-Jul-12 06:01N 39°09' W 009°26'0 0.4
2018-Jul-12 05:30N 39°09' W 009°26'0 0.2
2018-Jul-12 05:00N 39°09' W 009°26'1 1.4
2018-Jul-12 04:30N 39°09' W 009°25'7 0.5
2018-Jul-11 15:48N 39°15' W 009°24'310.3
2018-Jul-11 15:30N 39°12' W 009°25'0 0.3
2018-Jul-11 15:00N 39°12' W 009°25'0 0.3
2018-Jul-11 14:26N 39°12' W 009°25'3 6.7
2018-Jul-11 14:01N 39°09' W 009°24'510.6
2018-Jul-11 13:30N 39°15' W 009°24'5 0.1
2018-Jul-09 16:39N 39°10' W 009°24'1 8.0
2018-Jul-09 16:29N 39°09' W 009°24'0 0.8
2018-Jul-09 15:57N 39°09' W 009°24'0 0.3
2018-Jul-09 15:29N 39°10' W 009°24'0 0.6
2018-Jul-09 15:00N 39°10' W 009°24'0 0.1
2018-Jul-09 14:30N 39°10' W 009°24'0 0.1
2018-Jul-09 14:00N 39°10' W 009°24'  
2018-Jul-06 15:04N 39°13' W 009°25'0 2.3
2018-Jul-06 15:00N 39°12' W 009°25'2 5.0
2018-Jul-06 14:30N 39°12' W 009°28'2 0.1
2018-Jul-05 17:56N 39°11' W 009°26'4 9.4
2018-Jul-05 17:30N 39°07' W 009°28'5 9.9
2018-Jul-05 17:00N 39°02' W 009°28'5 9.6
2018-Jul-05 16:30N 38°57' W 009°29'4 8.7
2018-Jul-05 16:00N 38°53' W 009°30'3 6.0
2018-Jul-05 15:30N 38°56' W 009°28'510.1
2018-Jul-05 15:00N 39°01' W 009°29'510.7
2018-Jul-05 14:30N 39°06' W 009°29'6 0.3
2018-Jul-04 19:20N 39°11' W 009°25'410.8
2018-Jul-04 19:00N 39°08' W 009°26'510.7
2018-Jul-04 18:30N 39°03' W 009°27'4 8.3
2018-Jul-04 18:00N 38°59' W 009°28'0 0.4
2018-Jul-04 17:30N 38°59' W 009°28'0 0.2
2018-Jul-04 17:00N 38°59' W 009°28'1 2.3
2018-Jul-04 16:30N 38°60' W 009°29'5 9.7
2018-Jul-04 16:00N 39°05' W 009°29'5 9.6
2018-Jul-04 15:30N 39°09' W 009°28'2 4.9
2018-Jul-04 15:00N 39°12' W 009°28'0 0.2
2018-Jul-04 14:29N 39°12' W 009°28'0 0.1
2018-Jul-04 14:00N 39°12' W 009°28'1 0.1
2018-Jul-03 19:03N 39°12' W 009°27'010.1
2018-Jul-03 19:01N 39°12' W 009°27'  
Track history (hours):
 
Tides and Currents Weather Stations Pressure Air Temp Water Temp Dewpoint Dewpoint Depression Visibility Wind Speed Wind Dir Waves Ship Positions

Deus Nao Falta

Last reported at 2018-Jul-13 17:39 UTC. Time now 2018-Jul-16 06:33 UTC.
Position N 39°11' W 009°24'.

Length 22 m.

Type: Fishing. MMSI: 263422970.

Date/timePositionNaut miles runAvg speedWind from/ knotsBaromVisibWave heightAir tempDewpointWater temp
2018-Jul-13 17:39N 39°11' W 009°24'1 2.3
2018-Jul-13 17:14N 39°10' W 009°24'0 0.2
2018-Jul-13 17:00N 39°10' W 009°24'0 0.3
2018-Jul-13 16:29N 39°09' W 009°24'2 0.1
2018-Jul-12 22:43N 39°11' W 009°24'210.2
2018-Jul-12 22:30N 39°09' W 009°25'3 5.4
2018-Jul-12 22:00N 39°07' W 009°26'0 0.1
2018-Jul-12 21:30N 39°07' W 009°26'0 0.4
2018-Jul-12 21:01N 39°07' W 009°26'0 0.2
2018-Jul-12 20:29N 39°07' W 009°26'1 1.7
2018-Jul-12 20:00N 39°08' W 009°26'4 2.8
2018-Jul-12 18:36N 39°11' W 009°24'0 0.0
2018-Jul-12 18:24N 39°11' W 009°24'1 1.5
2018-Jul-12 17:52N 39°12' W 009°24'2 0.8
2018-Jul-12 15:43N 39°14' W 009°24'210.0
2018-Jul-12 15:31N 39°12' W 009°25'2 3.1
2018-Jul-12 15:00N 39°10' W 009°26'0 0.3
2018-Jul-12 14:30N 39°10' W 009°26'2 3.4
2018-Jul-12 13:59N 39°10' W 009°24'3 0.5
2018-Jul-12 06:55N 39°13' W 009°24'4 9.7
2018-Jul-12 06:30N 39°09' W 009°26'0 0.3
2018-Jul-12 06:01N 39°09' W 009°26'0 0.4
2018-Jul-12 05:30N 39°09' W 009°26'0 0.2
2018-Jul-12 05:00N 39°09' W 009°26'1 1.4
2018-Jul-12 04:30N 39°09' W 009°25'7 0.5
2018-Jul-11 15:48N 39°15' W 009°24'310.3
2018-Jul-11 15:30N 39°12' W 009°25'0 0.3
2018-Jul-11 15:00N 39°12' W 009°25'0 0.3
2018-Jul-11 14:26N 39°12' W 009°25'3 6.7
2018-Jul-11 14:01N 39°09' W 009°24'510.6
2018-Jul-11 13:30N 39°15' W 009°24'5 0.1
2018-Jul-09 16:39N 39°10' W 009°24'1 8.0
2018-Jul-09 16:29N 39°09' W 009°24'0 0.8
2018-Jul-09 15:57N 39°09' W 009°24'0 0.3
2018-Jul-09 15:29N 39°10' W 009°24'0 0.6
2018-Jul-09 15:00N 39°10' W 009°24'0 0.1
2018-Jul-09 14:30N 39°10' W 009°24'0 0.1
2018-Jul-09 14:00N 39°10' W 009°24'  
2018-Jul-06 15:04N 39°13' W 009°25'0 2.3
2018-Jul-06 15:00N 39°12' W 009°25'2 5.0
2018-Jul-06 14:30N 39°12' W 009°28'2 0.1
2018-Jul-05 17:56N 39°11' W 009°26'4 9.4
2018-Jul-05 17:30N 39°07' W 009°28'5 9.9
2018-Jul-05 17:00N 39°02' W 009°28'5 9.6
2018-Jul-05 16:30N 38°57' W 009°29'4 8.7
2018-Jul-05 16:00N 38°53' W 009°30'3 6.0
2018-Jul-05 15:30N 38°56' W 009°28'510.1
2018-Jul-05 15:00N 39°01' W 009°29'510.7
2018-Jul-05 14:30N 39°06' W 009°29'6 0.3
2018-Jul-04 19:20N 39°11' W 009°25'410.8
2018-Jul-04 19:00N 39°08' W 009°26'510.7
2018-Jul-04 18:30N 39°03' W 009°27'4 8.3
2018-Jul-04 18:00N 38°59' W 009°28'0 0.4
2018-Jul-04 17:30N 38°59' W 009°28'0 0.2
2018-Jul-04 17:00N 38°59' W 009°28'1 2.3
2018-Jul-04 16:30N 38°60' W 009°29'5 9.7
2018-Jul-04 16:00N 39°05' W 009°29'5 9.6
2018-Jul-04 15:30N 39°09' W 009°28'2 4.9
2018-Jul-04 15:00N 39°12' W 009°28'0 0.2
2018-Jul-04 14:29N 39°12' W 009°28'0 0.1
2018-Jul-04 14:00N 39°12' W 009°28'1 0.1
2018-Jul-03 19:03N 39°12' W 009°27'010.1
2018-Jul-03 19:01N 39°12' W 009°27'  

Dump ship's entire track history